createdAt,value
2022-11-24T00:00:31.211Z,150159.28
2022-11-24T00:02:57.106Z,150168.13
2022-11-24T00:05:23.235Z,150166.88
2022-11-24T00:07:49.084Z,150160.53
2022-11-24T00:10:15.060Z,150166.88
2022-11-24T00:12:40.861Z,150174.41
2022-11-24T00:15:06.883Z,150184.53
2022-11-24T00:17:32.678Z,150171.91
2022-11-24T00:19:58.484Z,150165.63
2022-11-24T00:22:24.391Z,150180.72
2022-11-24T00:24:50.511Z,150187.03
2022-11-24T00:27:16.534Z,150163.06
2022-11-24T00:29:42.609Z,150171.91
2022-11-24T00:32:08.425Z,150169.38
2022-11-24T00:34:34.407Z,150199.63
2022-11-24T00:37:00.354Z,150183.28
2022-11-24T00:39:26.188Z,150188.31
2022-11-24T00:41:51.970Z,150181.97
2022-11-24T00:44:18.014Z,150187.03
2022-11-24T00:46:44.064Z,150195.84
2022-11-24T00:49:09.989Z,150173.16
2022-11-24T00:51:35.781Z,150164.31
2022-11-24T00:54:01.813Z,150163.06
2022-11-24T00:56:29.059Z,150158.03
2022-11-24T00:58:55.254Z,150142.88
2022-11-24T01:01:24.023Z,150163.06
2022-11-24T01:03:50.723Z,150169.38
2022-11-24T01:06:24.741Z,150176.94
2022-11-24T01:08:50.846Z,150166.88
2022-11-24T01:11:20.225Z,150171.91
2022-11-24T01:13:48.477Z,150178.19
2022-11-24T01:16:14.394Z,150185.78
2022-11-24T01:18:40.588Z,150170.66
2022-11-24T01:21:10.096Z,150183.28
2022-11-24T01:23:36.491Z,150193.34
2022-11-24T01:26:07.533Z,150171.91
2022-11-24T01:28:33.799Z,150160.53
2022-11-24T01:31:01.488Z,150168.13
2022-11-24T01:33:27.648Z,150178.19
2022-11-24T01:35:53.770Z,150183.28
2022-11-24T01:38:20.114Z,150212.25
2022-11-24T01:40:45.917Z,150213.50
2022-11-24T01:43:20.970Z,150170.66
2022-11-24T01:45:47.529Z,150207.22
2022-11-24T01:48:28.990Z,150181.97
2022-11-24T01:51:19.233Z,150202.19
2022-11-24T01:53:50.791Z,150188.31
2022-11-24T01:56:17.459Z,150184.53
2022-11-24T01:58:45.830Z,150209.72
2022-11-24T02:01:11.897Z,150192.06
2022-11-24T02:03:40.789Z,150163.06
2022-11-24T02:06:18.093Z,150154.25
2022-11-24T02:08:58.474Z,150144.13
2022-11-24T02:11:28.609Z,150161.78
2022-11-24T02:13:56.391Z,150156.75
2022-11-24T02:16:22.491Z,150168.13
2022-11-24T02:18:48.451Z,150174.41
2022-11-24T02:21:15.782Z,150183.28
2022-11-24T02:24:07.437Z,150171.91
2022-11-24T02:26:44.996Z,150153.00
2022-11-24T02:29:12.196Z,150116.41
2022-11-24T02:31:46.450Z,150137.84
2022-11-24T02:34:12.273Z,150140.38
2022-11-24T02:36:38.268Z,150153.00
2022-11-24T02:39:10.056Z,150149.22
2022-11-24T02:41:36.773Z,150146.66
2022-11-24T02:44:03.029Z,150161.78
2022-11-24T02:46:29.551Z,150155.50
2022-11-24T02:48:55.574Z,150149.22
2022-11-24T02:51:22.700Z,150146.66
2022-11-24T02:53:49.134Z,150141.63
2022-11-24T02:56:15.160Z,150136.59
2022-11-24T02:58:42.365Z,150163.06
2022-11-24T03:01:08.417Z,150158.03
2022-11-24T03:03:35.075Z,150161.78
2022-11-24T03:06:00.803Z,150154.25
2022-11-24T03:08:26.602Z,150159.28
2022-11-24T03:10:52.728Z,150155.50
2022-11-24T03:13:18.573Z,150134.06
2022-11-24T03:15:44.431Z,150171.91
2022-11-24T03:18:10.372Z,150178.19
2022-11-24T03:20:36.587Z,150190.81
2022-11-24T03:23:02.356Z,150173.16
2022-11-24T03:25:28.195Z,150179.44
2022-11-24T03:27:57.077Z,150214.75
2022-11-24T03:30:22.978Z,150223.63
2022-11-24T03:32:51.819Z,150214.75
2022-11-24T03:35:17.963Z,150199.63
2022-11-24T03:37:43.756Z,150219.84
2022-11-24T03:40:09.985Z,150185.78
2022-11-24T03:42:35.814Z,150181.97
2022-11-24T03:45:16.656Z,150209.72
2022-11-24T03:47:51.017Z,150198.38
2022-11-24T03:50:16.850Z,150195.84
2022-11-24T03:52:42.662Z,150173.16
2022-11-24T03:55:08.517Z,150179.44
2022-11-24T03:57:34.300Z,150154.25
2022-11-24T04:00:00.114Z,150173.16
2022-11-24T04:02:25.938Z,150146.66
2022-11-24T04:04:52.315Z,150155.50
2022-11-24T04:07:18.223Z,150155.50
2022-11-24T04:09:44.525Z,150168.13
2022-11-24T04:12:28.958Z,150158.03
2022-11-24T04:14:54.716Z,150137.84
2022-11-24T04:17:20.459Z,150150.47
2022-11-24T04:19:46.245Z,150180.72
2022-11-24T04:22:12.068Z,150180.72
2022-11-24T04:24:37.824Z,150154.25
2022-11-24T04:27:03.646Z,150159.28
2022-11-24T04:29:29.548Z,150183.28
2022-11-24T04:31:55.419Z,150190.81
2022-11-24T04:34:21.185Z,150171.91
2022-11-24T04:36:47.034Z,150199.63
2022-11-24T04:39:23.025Z,150181.97
2022-11-24T04:41:52.389Z,150178.19
2022-11-24T04:44:18.154Z,150187.03
2022-11-24T04:46:43.990Z,150174.41
2022-11-24T04:49:11.023Z,150179.44
2022-11-24T04:51:38.143Z,150166.88
2022-11-24T04:54:04.914Z,150183.28
2022-11-24T04:56:30.815Z,150192.06
2022-11-24T04:58:56.664Z,150173.16
2022-11-24T05:01:22.852Z,150171.91
2022-11-24T05:03:48.770Z,150179.44
2022-11-24T05:06:14.538Z,150181.97
2022-11-24T05:08:40.266Z,150183.28
2022-11-24T05:11:07.174Z,150192.06
2022-11-24T05:13:32.996Z,150184.53
2022-11-24T05:15:59.526Z,150179.44
2022-11-24T05:18:25.705Z,150179.44
2022-11-24T05:20:51.491Z,150179.44
2022-11-24T05:23:17.245Z,150176.94
2022-11-24T05:25:47.426Z,150199.63
2022-11-24T05:28:13.655Z,150214.75
2022-11-24T05:30:39.857Z,150188.31
2022-11-24T05:33:15.370Z,150192.06
2022-11-24T05:35:41.373Z,150211.00
2022-11-24T05:38:07.805Z,150250.09
2022-11-24T05:40:33.623Z,150222.34
2022-11-24T05:42:59.785Z,150208.47
2022-11-24T05:45:25.589Z,150214.75
2022-11-24T05:47:52.456Z,150247.56
2022-11-24T05:50:21.021Z,150240.03
2022-11-24T05:52:47.426Z,150232.41
2022-11-24T05:55:18.682Z,150233.69
2022-11-24T05:57:44.850Z,150234.94
2022-11-24T06:00:11.365Z,150247.56
2022-11-24T06:02:37.360Z,150247.56
2022-11-24T06:05:03.486Z,150262.72
2022-11-24T06:07:29.339Z,150265.22
2022-11-24T06:09:55.138Z,150255.16
2022-11-24T06:12:20.967Z,150232.41
2022-11-24T06:14:47.046Z,150250.09
2022-11-24T06:17:12.963Z,150260.19
2022-11-24T06:19:41.863Z,150277.84
2022-11-24T06:22:08.182Z,150250.09
2022-11-24T06:24:34.185Z,150260.19
2022-11-24T06:27:00.270Z,150246.31
2022-11-24T06:29:26.179Z,150247.56
2022-11-24T06:31:52.105Z,150237.50
2022-11-24T06:34:18.094Z,150256.41
2022-11-24T06:36:43.933Z,150263.97
2022-11-24T06:39:10.136Z,150250.09
2022-11-24T06:41:35.930Z,150241.28
2022-11-24T06:44:03.307Z,150247.56
2022-11-24T06:46:29.344Z,150242.53
2022-11-24T06:48:55.214Z,150238.75
2022-11-24T06:51:21.108Z,150238.75
2022-11-24T06:53:47.251Z,150263.97
2022-11-24T06:56:16.571Z,150233.69
2022-11-24T06:58:47.702Z,150234.94
2022-11-24T07:01:19.466Z,150241.28
2022-11-24T07:03:45.813Z,150270.25
2022-11-24T07:06:11.714Z,150269.00
2022-11-24T07:08:37.522Z,150245.06
2022-11-24T07:11:08.214Z,150236.19
2022-11-24T07:13:34.144Z,150251.34
2022-11-24T07:16:09.192Z,150242.53
2022-11-24T07:18:35.063Z,150216.03
2022-11-24T07:21:03.907Z,150203.44
2022-11-24T07:23:32.681Z,150203.44
2022-11-24T07:26:03.726Z,150198.38
2022-11-24T07:28:32.888Z,150207.22
2022-11-24T07:30:58.784Z,150221.09
2022-11-24T07:33:25.374Z,150188.31
2022-11-24T07:35:52.362Z,150211.00
2022-11-24T07:38:18.559Z,150229.91
2022-11-24T07:40:44.322Z,150224.88
2022-11-24T07:43:13.488Z,150251.34
2022-11-24T07:45:43.024Z,150275.34
2022-11-24T07:48:10.985Z,150246.31
2022-11-24T07:50:36.775Z,150234.94
2022-11-24T07:53:03.329Z,150260.19
2022-11-24T07:55:29.635Z,150231.16
2022-11-24T07:57:59.060Z,150199.63
2022-11-24T08:00:24.912Z,150202.19
2022-11-24T08:02:50.646Z,150214.75
2022-11-24T08:05:16.442Z,150247.56
2022-11-24T08:07:42.313Z,150253.84
2022-11-24T08:10:08.433Z,150242.53
2022-11-24T08:12:34.341Z,150228.66
2022-11-24T08:15:00.104Z,150240.03
2022-11-24T08:17:28.000Z,150251.34
2022-11-24T08:19:54.091Z,150245.06
2022-11-24T08:22:19.897Z,150261.44
2022-11-24T08:24:47.964Z,150270.25
2022-11-24T08:27:14.982Z,150276.59
2022-11-24T08:29:41.828Z,150265.22
2022-11-24T08:32:08.727Z,150266.50
2022-11-24T08:34:35.037Z,150263.97
2022-11-24T08:37:03.479Z,150300.59
2022-11-24T08:39:29.438Z,150258.94
2022-11-24T08:41:55.330Z,150257.69
2022-11-24T08:44:21.173Z,150260.19
2022-11-24T08:46:47.063Z,150270.25
2022-11-24T08:49:14.303Z,150279.13
2022-11-24T08:51:40.396Z,150291.78
2022-11-24T08:54:07.770Z,150282.94
2022-11-24T08:56:33.611Z,150269.00
2022-11-24T08:58:59.990Z,150282.94
2022-11-24T09:01:26.802Z,150252.59
2022-11-24T09:03:53.024Z,150271.50
2022-11-24T09:06:24.920Z,150251.34
2022-11-24T09:08:52.621Z,150241.28
2022-11-24T09:11:18.904Z,150243.78
2022-11-24T09:13:45.207Z,150274.09
2022-11-24T09:16:17.731Z,150240.03
2022-11-24T09:18:43.684Z,150236.19
2022-11-24T09:21:18.822Z,150262.72
2022-11-24T09:23:47.951Z,150255.16
2022-11-24T09:26:16.744Z,150285.44
2022-11-24T09:28:43.240Z,150294.31
2022-11-24T09:31:11.359Z,150304.38
2022-11-24T09:33:37.635Z,150301.84
2022-11-24T09:36:04.624Z,150300.59
2022-11-24T09:38:30.934Z,150306.88
2022-11-24T09:41:27.543Z,150294.31
2022-11-24T09:44:15.100Z,150265.22
2022-11-24T09:46:47.643Z,150296.81
2022-11-24T09:49:21.909Z,150270.25
2022-11-24T09:51:52.056Z,150261.44
2022-11-24T09:54:24.327Z,150253.84
2022-11-24T09:56:51.637Z,150303.13
2022-11-24T09:59:20.737Z,150282.94
2022-11-24T10:01:48.284Z,150279.13
2022-11-24T10:04:14.086Z,150248.81
2022-11-24T10:07:04.752Z,150248.81
2022-11-24T10:09:52.109Z,150277.84
2022-11-24T10:12:29.924Z,150265.22
2022-11-24T10:15:37.172Z,150258.94
2022-11-24T10:18:20.769Z,150261.44
2022-11-24T10:21:17.106Z,150252.59
2022-11-24T10:23:48.679Z,150242.53
2022-11-24T10:26:24.147Z,150257.69
2022-11-24T10:28:55.462Z,150271.50
2022-11-24T10:31:35.617Z,150277.84
2022-11-24T10:34:16.093Z,150286.72
2022-11-24T10:37:20.844Z,150301.84
2022-11-24T10:40:04.990Z,150287.97
2022-11-24T10:42:36.140Z,150281.63
2022-11-24T10:45:14.348Z,150257.69
2022-11-24T10:47:42.419Z,150242.53
2022-11-24T10:50:47.074Z,150216.03
2022-11-24T10:53:28.598Z,150231.16
2022-11-24T10:55:54.860Z,150234.94
2022-11-24T10:58:32.950Z,150240.03
2022-11-24T11:01:12.297Z,150261.44
2022-11-24T11:03:50.736Z,150271.50
2022-11-24T11:06:28.189Z,150290.47
2022-11-24T11:09:06.534Z,150293.06
2022-11-24T11:11:33.948Z,150323.28
2022-11-24T11:14:04.932Z,150323.28
2022-11-24T11:16:50.430Z,150342.22
2022-11-24T11:19:58.451Z,150317.00
2022-11-24T11:22:32.500Z,150334.66
2022-11-24T11:25:32.556Z,150328.38
2022-11-24T11:28:25.919Z,150303.13
2022-11-24T11:31:16.538Z,150313.22
2022-11-24T11:34:06.220Z,150325.81
2022-11-24T11:36:33.474Z,150340.97
2022-11-24T11:39:00.086Z,150415.41
2022-11-24T11:41:35.988Z,150414.16
2022-11-24T11:44:25.011Z,150457.09
2022-11-24T11:46:53.120Z,150448.22
2022-11-24T11:49:19.032Z,150518.91
2022-11-24T11:52:02.998Z,150531.56
2022-11-24T11:54:41.115Z,150536.59
2022-11-24T11:57:28.847Z,150520.19
2022-11-24T12:00:03.025Z,150500.00
2022-11-24T12:02:58.630Z,150483.56
2022-11-24T12:05:41.370Z,150550.50
2022-11-24T12:08:28.446Z,150626.25
2022-11-24T12:11:07.348Z,150621.22
2022-11-24T12:13:58.825Z,150594.66
2022-11-24T12:16:39.986Z,150532.81
2022-11-24T12:19:34.310Z,150542.94
2022-11-24T12:22:12.906Z,150542.94
2022-11-24T12:25:11.148Z,150555.53
2022-11-24T12:27:58.573Z,150587.13
2022-11-24T12:30:25.350Z,150603.53
2022-11-24T12:33:28.285Z,150709.63
2022-11-24T12:36:20.146Z,150835.97
2022-11-24T12:39:14.945Z,151044.56
2022-11-24T12:42:03.302Z,151230.50
2022-11-24T12:44:45.037Z,151371.03
2022-11-24T12:47:26.035Z,151567.28
2022-11-24T12:50:07.452Z,151740.78
2022-11-24T12:52:38.514Z,151795.31
2022-11-24T12:55:11.853Z,151738.25
2022-11-24T12:58:07.700Z,151884.03
2022-11-24T13:00:42.335Z,151792.78
2022-11-24T13:03:35.541Z,151654.63
2022-11-24T13:06:23.988Z,151526.72
2022-11-24T13:08:50.142Z,151327.94
2022-11-24T13:11:22.362Z,151201.41
2022-11-24T13:14:06.059Z,151225.47
2022-11-24T13:16:37.110Z,151196.34
2022-11-24T13:19:16.459Z,151139.44
2022-11-24T13:21:42.631Z,151042.03
2022-11-24T13:24:18.553Z,151025.59
2022-11-24T13:26:47.972Z,151010.47
2022-11-24T13:29:33.009Z,150892.88
2022-11-24T13:32:01.690Z,150930.78
2022-11-24T13:34:39.862Z,150882.69
2022-11-24T13:37:32.043Z,150900.44
2022-11-24T13:40:10.646Z,150944.72
2022-11-24T13:42:55.513Z,150892.88
2022-11-24T13:45:44.411Z,150823.31
2022-11-24T13:48:19.467Z,150817.00
2022-11-24T13:50:54.274Z,150804.38
2022-11-24T13:53:40.232Z,150770.25
2022-11-24T13:56:08.771Z,150762.69
2022-11-24T13:58:49.555Z,150707.09
2022-11-24T14:01:28.896Z,150727.31
2022-11-24T14:07:07.467Z,150667.97
2022-11-24T14:09:43.823Z,150673.00
2022-11-24T14:12:25.428Z,150700.75
2022-11-24T14:14:56.111Z,150702.03
2022-11-24T14:17:27.876Z,150680.56
2022-11-24T14:19:57.655Z,150669.22
2022-11-24T14:22:26.157Z,150666.66
2022-11-24T14:25:00.101Z,150698.25
2022-11-24T14:27:30.453Z,150674.25
2022-11-24T14:30:02.143Z,150702.03
2022-11-24T14:32:28.582Z,150726.06
2022-11-24T14:34:54.884Z,150720.97
2022-11-24T14:37:20.807Z,150704.59
2022-11-24T14:39:46.736Z,150702.03
2022-11-24T14:42:20.606Z,150689.41
2022-11-24T14:44:48.669Z,150652.78
2022-11-24T14:47:25.721Z,150673.00
2022-11-24T14:49:56.745Z,150604.78
2022-11-24T14:52:24.840Z,150617.44
2022-11-24T14:54:58.985Z,150592.16
2022-11-24T14:57:35.002Z,150592.16
2022-11-24T15:00:19.418Z,150560.63
2022-11-24T15:02:54.351Z,150550.50
2022-11-24T15:05:23.216Z,150536.59
2022-11-24T15:07:59.118Z,150530.31
2022-11-24T15:10:36.667Z,150520.19
2022-11-24T15:13:21.680Z,150515.16
2022-11-24T15:16:02.439Z,150526.53
2022-11-24T15:18:47.398Z,150497.47
2022-11-24T15:21:18.982Z,150474.75
2022-11-24T15:24:15.837Z,150462.13
2022-11-24T15:26:42.791Z,150481.06
2022-11-24T15:29:12.157Z,150477.28
2022-11-24T15:31:39.858Z,150483.56
2022-11-24T15:34:06.692Z,150476.03
2022-11-24T15:36:32.812Z,150435.63
2022-11-24T15:38:58.680Z,150444.47
2022-11-24T15:41:30.292Z,150423.00
2022-11-24T15:43:58.673Z,150426.78
2022-11-24T15:46:29.836Z,150414.16
2022-11-24T15:48:56.429Z,150417.97
2022-11-24T15:51:25.539Z,150399.03
2022-11-24T15:53:58.872Z,150392.69
2022-11-24T15:56:32.945Z,150415.41
2022-11-24T15:58:59.551Z,150397.72
2022-11-24T16:01:31.605Z,150383.91
2022-11-24T16:03:57.711Z,150364.97
2022-11-24T16:06:25.363Z,150375.03
2022-11-24T16:08:52.547Z,150372.53
2022-11-24T16:11:18.418Z,150372.53
2022-11-24T16:13:51.534Z,150358.63
2022-11-24T16:16:20.047Z,150362.41
2022-11-24T16:18:45.977Z,150333.41
2022-11-24T16:21:11.797Z,150347.31
2022-11-24T16:23:37.798Z,150354.84
2022-11-24T16:26:04.265Z,150358.63
2022-11-24T16:28:30.447Z,150349.81
2022-11-24T16:30:56.391Z,150334.66
2022-11-24T16:33:22.300Z,150351.06
2022-11-24T16:35:48.421Z,150337.19
2022-11-24T16:38:15.649Z,150330.91
2022-11-24T16:40:41.435Z,150343.47
2022-11-24T16:43:07.315Z,150347.31
2022-11-24T16:45:33.156Z,150325.81
2022-11-24T16:47:59.977Z,150342.22
2022-11-24T16:50:26.250Z,150314.50
2022-11-24T16:52:52.267Z,150315.75
2022-11-24T16:55:18.298Z,150318.25
2022-11-24T16:57:44.581Z,150332.16
2022-11-24T17:00:11.272Z,150313.22
2022-11-24T17:02:37.252Z,150319.53
2022-11-24T17:05:03.230Z,150329.63
2022-11-24T17:07:29.154Z,150346.03
2022-11-24T17:09:55.319Z,150346.03
2022-11-24T17:12:21.185Z,150310.72
2022-11-24T17:15:09.459Z,150304.38
2022-11-24T17:17:33.256Z,150296.81
2022-11-24T17:19:59.165Z,150291.78
2022-11-24T17:22:25.139Z,150271.50
2022-11-24T17:24:51.030Z,150276.59
2022-11-24T17:27:16.965Z,150255.16
2022-11-24T17:29:42.954Z,150255.16
2022-11-24T17:32:08.861Z,150246.31
2022-11-24T17:34:35.138Z,150253.84
2022-11-24T17:37:01.275Z,150247.56
2022-11-24T17:39:27.560Z,150269.00
2022-11-24T17:41:53.414Z,150286.72
2022-11-24T17:44:19.248Z,150289.22
2022-11-24T17:46:45.090Z,150242.53
2022-11-24T17:49:12.460Z,150234.94
2022-11-24T17:51:38.426Z,150248.81
2022-11-24T17:54:31.265Z,150228.66
2022-11-24T17:56:50.237Z,150242.53
2022-11-24T17:59:16.198Z,150218.53
2022-11-24T18:01:42.327Z,150219.84
2022-11-24T18:04:08.235Z,150208.47
2022-11-24T18:06:34.512Z,150188.31
2022-11-24T18:09:00.374Z,150187.03
2022-11-24T18:11:31.753Z,150193.34
2022-11-24T18:14:02.166Z,150188.31
2022-11-24T18:16:32.637Z,150190.81
2022-11-24T18:19:08.485Z,150153.00
2022-11-24T18:21:42.977Z,150149.22
2022-11-24T18:24:10.571Z,150134.06
2022-11-24T18:26:37.686Z,150110.09
2022-11-24T18:29:04.063Z,150129.00
2022-11-24T18:31:31.555Z,150113.91
2022-11-24T18:33:59.014Z,150117.69
2022-11-24T18:36:30.015Z,150108.84
2022-11-24T18:38:59.587Z,150110.09
2022-11-24T18:41:26.385Z,150113.91
2022-11-24T18:43:52.278Z,150107.56
2022-11-24T18:46:18.696Z,150093.75
2022-11-24T18:48:45.300Z,150115.16
2022-11-24T18:51:13.952Z,150093.75
2022-11-24T18:53:44.679Z,150100.03
2022-11-24T18:56:17.112Z,150088.66
2022-11-24T18:58:44.067Z,150111.41
2022-11-24T19:01:16.253Z,150117.69
2022-11-24T19:03:48.301Z,150097.50
2022-11-24T19:06:31.346Z,150110.09
2022-11-24T19:08:58.727Z,150108.84
2022-11-24T19:11:31.937Z,150129.00
2022-11-24T19:13:57.805Z,150121.47
2022-11-24T19:16:24.472Z,150098.78
2022-11-24T19:18:54.247Z,150098.78
2022-11-24T19:21:21.197Z,150101.28
2022-11-24T19:23:47.095Z,150091.19
2022-11-24T19:26:13.173Z,150083.63
2022-11-24T19:28:39.259Z,150076.09
2022-11-24T19:31:12.754Z,150068.50
2022-11-24T19:33:39.060Z,150095.00
2022-11-24T19:36:09.868Z,150103.81
2022-11-24T19:38:36.077Z,150100.03
2022-11-24T19:41:07.784Z,150087.41
2022-11-24T19:43:34.308Z,150069.75
2022-11-24T19:46:19.125Z,150083.63
2022-11-24T19:48:49.287Z,150065.97
2022-11-24T19:51:18.021Z,150053.38
2022-11-24T19:53:44.276Z,150064.72
2022-11-24T19:56:12.703Z,150052.09
2022-11-24T19:58:39.680Z,150072.28
2022-11-24T20:01:14.583Z,150054.63
2022-11-24T20:03:41.569Z,150077.34
2022-11-24T20:06:09.660Z,150053.38
2022-11-24T20:08:37.228Z,150049.59
2022-11-24T20:11:07.382Z,150064.72
2022-11-24T20:13:34.520Z,150065.97
2022-11-24T20:16:12.171Z,150072.28
2022-11-24T20:18:43.064Z,150074.78
2022-11-24T20:21:14.807Z,150071.00
2022-11-24T20:23:41.359Z,150089.91
2022-11-24T20:26:10.518Z,150072.28
2022-11-24T20:28:36.624Z,150089.91
2022-11-24T20:31:11.811Z,150086.16
2022-11-24T20:33:38.423Z,150082.38
2022-11-24T20:36:07.581Z,150078.59
2022-11-24T20:38:34.115Z,150079.88
2022-11-24T20:41:08.791Z,150083.63
2022-11-24T20:43:36.341Z,150077.34
2022-11-24T20:46:12.445Z,150093.75
2022-11-24T20:48:38.691Z,150092.44
2022-11-24T20:51:06.889Z,150113.91
2022-11-24T20:53:33.269Z,150123.97
2022-11-24T20:56:05.564Z,150093.75
2022-11-24T20:58:33.932Z,150082.38
2022-11-24T21:01:17.014Z,150079.88
2022-11-24T21:03:43.797Z,150077.34
2022-11-24T21:06:11.223Z,150059.69
2022-11-24T21:08:38.417Z,150040.78
2022-11-24T21:11:06.189Z,150081.13
2022-11-24T21:13:33.774Z,150067.25
2022-11-24T21:16:00.179Z,150055.88
2022-11-24T21:18:26.294Z,150086.16
2022-11-24T21:20:52.238Z,150068.50
2022-11-24T21:23:19.797Z,150060.94
2022-11-24T21:25:45.727Z,150050.84
2022-11-24T21:28:12.583Z,150044.56
2022-11-24T21:30:38.491Z,150049.59
2022-11-24T21:33:05.270Z,150048.34
2022-11-24T21:35:35.849Z,150049.59
2022-11-24T21:38:02.608Z,150040.78
2022-11-24T21:40:28.915Z,150063.47
2022-11-24T21:42:57.728Z,150047.06
2022-11-24T21:45:23.706Z,150029.44
2022-11-24T21:47:49.559Z,150030.69
2022-11-24T21:50:15.578Z,150039.50
2022-11-24T21:52:41.426Z,150042.06
2022-11-24T21:55:08.073Z,150050.84
2022-11-24T21:57:33.979Z,150047.06
2022-11-24T21:59:59.836Z,150025.66
2022-11-24T22:02:25.706Z,150047.06
2022-11-24T22:04:52.241Z,150029.44
2022-11-24T22:07:18.069Z,150026.91
2022-11-24T22:09:46.224Z,150035.72
2022-11-24T22:12:12.014Z,150043.31
2022-11-24T22:14:40.575Z,150043.31
2022-11-24T22:17:06.731Z,150018.06
2022-11-24T22:19:32.583Z,150031.94
2022-11-24T22:21:58.398Z,150039.50
2022-11-24T22:24:27.200Z,150064.72
2022-11-24T22:26:54.040Z,150038.22
2022-11-24T22:29:19.962Z,150039.50
2022-11-24T22:31:46.203Z,150030.69
2022-11-24T22:34:12.185Z,150045.81
2022-11-24T22:36:38.058Z,150042.06
2022-11-24T22:39:05.526Z,150023.16
2022-11-24T22:41:33.430Z,150043.31
2022-11-24T22:44:00.551Z,150031.94
2022-11-24T22:46:28.419Z,150053.38
2022-11-24T22:48:57.018Z,150052.09
2022-11-24T22:51:26.377Z,150016.81
2022-11-24T22:53:54.730Z,150014.28
2022-11-24T22:56:21.513Z,150006.75
2022-11-24T22:58:48.120Z,150020.59
2022-11-24T23:01:17.087Z,150019.31
2022-11-24T23:03:50.611Z,150026.91
2022-11-24T23:06:27.808Z,150005.50
2022-11-24T23:08:54.572Z,150010.53
2022-11-24T23:11:32.699Z,150013.03
2022-11-24T23:14:02.868Z,150033.19
2022-11-24T23:16:29.702Z,150009.28
2022-11-24T23:18:55.555Z,150014.28
2022-11-24T23:21:24.977Z,150018.06
2022-11-24T23:23:52.148Z,150016.81
2022-11-24T23:26:23.899Z,150028.19
2022-11-24T23:28:50.201Z,150024.41
2022-11-24T23:31:20.694Z,150025.66
2022-11-24T23:33:47.235Z,150045.81
2022-11-24T23:36:15.572Z,150031.94
2022-11-24T23:38:42.650Z,150053.38
2022-11-24T23:41:11.474Z,150067.25
2022-11-24T23:43:39.023Z,150076.09
2022-11-24T23:46:07.589Z,150089.91
2022-11-24T23:48:34.108Z,150093.75
2022-11-24T23:51:09.193Z,150102.53
2022-11-24T23:53:35.583Z,150110.09
2022-11-24T23:56:02.174Z,150084.91
2022-11-24T23:58:28.346Z,150097.50
